createdAt,value
2018-06-12T00:00:19.311Z,24.17
2018-06-12T00:00:50.897Z,24.16
2018-06-12T00:01:22.468Z,24.16
2018-06-12T00:01:54.081Z,24.16
2018-06-12T00:02:25.663Z,24.15
2018-06-12T00:02:57.273Z,24.13
2018-06-12T00:03:28.865Z,24.13
2018-06-12T00:04:00.432Z,24.12
2018-06-12T00:04:32.018Z,24.11
2018-06-12T00:05:03.592Z,24.11
2018-06-12T00:05:35.197Z,24.11
2018-06-12T00:06:06.801Z,24.11
2018-06-12T00:06:38.396Z,24.09
2018-06-12T00:07:10.024Z,24.08
2018-06-12T00:07:41.609Z,24.09
2018-06-12T00:08:13.193Z,24.09
2018-06-12T00:08:44.781Z,24.08
2018-06-12T00:09:16.394Z,24.08
2018-06-12T00:09:47.981Z,24.08
2018-06-12T00:10:19.589Z,24.07
2018-06-12T00:10:51.189Z,24.06
2018-06-12T00:11:22.798Z,24.06
2018-06-12T00:11:54.409Z,24.05
2018-06-12T00:12:26.058Z,24.06
2018-06-12T00:12:57.642Z,24.06
2018-06-12T00:13:29.225Z,24.05
2018-06-12T00:14:00.805Z,24.05
2018-06-12T00:14:32.396Z,24.06
2018-06-12T00:15:03.983Z,24.06
2018-06-12T00:15:35.593Z,24.05
2018-06-12T00:16:07.182Z,24.05
2018-06-12T00:16:38.751Z,24.04
2018-06-12T00:17:10.320Z,24.02
2018-06-12T00:17:41.965Z,24.03
2018-06-12T00:18:13.537Z,24.02
2018-06-12T00:18:45.114Z,24.03
2018-06-12T00:19:16.684Z,24.02
2018-06-12T00:19:48.284Z,24.02
2018-06-12T00:20:19.864Z,24.02
2018-06-12T00:20:51.466Z,24.02
2018-06-12T00:21:23.048Z,24.02
2018-06-12T00:21:54.656Z,24.02
2018-06-12T00:22:26.245Z,24.01
2018-06-12T00:22:57.840Z,24.01
2018-06-12T00:23:29.426Z,24.00
2018-06-12T00:24:01.029Z,24.00
2018-06-12T00:24:32.638Z,23.98
2018-06-12T00:25:04.298Z,24.00
2018-06-12T00:25:35.885Z,24.00
2018-06-12T00:26:07.455Z,23.99
2018-06-12T00:26:39.065Z,23.99
2018-06-12T00:27:10.653Z,23.99
2018-06-12T00:27:42.262Z,23.99
2018-06-12T00:28:13.910Z,23.99
2018-06-12T00:28:45.517Z,24.00
2018-06-12T00:29:17.121Z,23.99
2018-06-12T00:29:48.729Z,24.00
2018-06-12T00:30:20.337Z,24.00
2018-06-12T00:30:51.949Z,24.00
2018-06-12T00:31:23.520Z,24.01
2018-06-12T00:31:55.110Z,24.00
2018-06-12T00:32:26.689Z,24.00
2018-06-12T00:32:58.264Z,24.00
2018-06-12T00:33:29.935Z,23.99
2018-06-12T00:34:01.517Z,23.99
2018-06-12T00:34:33.101Z,23.98
2018-06-12T00:35:04.788Z,23.97
2018-06-12T00:35:36.369Z,23.97
2018-06-12T00:36:07.973Z,23.97
2018-06-12T00:36:39.548Z,23.97
2018-06-12T00:37:11.117Z,23.97
2018-06-12T00:37:42.698Z,23.96
2018-06-12T00:38:14.302Z,23.97
2018-06-12T00:38:45.949Z,23.95
2018-06-12T00:39:17.557Z,23.97
2018-06-12T00:39:49.168Z,23.96
2018-06-12T00:40:20.745Z,23.97
2018-06-12T00:40:52.345Z,23.97
2018-06-12T00:41:23.916Z,23.98
2018-06-12T00:41:55.491Z,23.97
2018-06-12T00:42:27.073Z,24.00
2018-06-12T00:42:58.644Z,24.01
2018-06-12T00:43:30.286Z,24.01
2018-06-12T00:44:01.899Z,24.00
2018-06-12T00:44:33.513Z,24.00
2018-06-12T00:45:05.125Z,23.99
2018-06-12T00:45:36.709Z,23.98
2018-06-12T00:46:08.309Z,23.96
2018-06-12T00:46:39.902Z,23.98
2018-06-12T00:47:11.486Z,23.97
2018-06-12T00:47:43.065Z,23.98
2018-06-12T00:48:14.670Z,23.98
2018-06-12T00:48:46.346Z,23.91
2018-06-12T00:49:17.990Z,23.98
2018-06-12T00:49:49.582Z,23.98
2018-06-12T00:50:21.190Z,23.99
2018-06-12T00:50:52.799Z,24.00
2018-06-12T00:51:24.409Z,24.00
2018-06-12T00:51:55.993Z,24.01
2018-06-12T00:52:27.579Z,24.01
2018-06-12T00:52:59.157Z,24.02
2018-06-12T00:53:30.765Z,24.05
2018-06-12T00:54:02.373Z,24.06
2018-06-12T00:54:34.013Z,24.07
2018-06-12T00:55:05.601Z,24.05
2018-06-12T00:55:37.183Z,24.09
2018-06-12T00:56:08.752Z,24.07
2018-06-12T00:56:40.353Z,24.10
2018-06-12T00:57:11.957Z,24.11
2018-06-12T00:57:43.561Z,24.11
2018-06-12T00:58:15.172Z,24.10
2018-06-12T00:58:46.759Z,24.09
2018-06-12T00:59:18.353Z,24.10
2018-06-12T00:59:49.969Z,24.09
2018-06-12T01:00:21.570Z,24.09
2018-06-12T01:00:53.180Z,24.06
2018-06-12T01:01:24.762Z,24.06
2018-06-12T01:01:56.347Z,24.06
2018-06-12T01:02:27.939Z,24.06
2018-06-12T01:02:59.523Z,24.04
2018-06-12T01:03:31.120Z,24.04
2018-06-12T01:04:02.703Z,24.02
2018-06-12T01:04:34.335Z,24.01
2018-06-12T01:05:05.937Z,24.02
2018-06-12T01:05:37.555Z,24.02
2018-06-12T01:06:09.151Z,24.03
2018-06-12T01:06:40.762Z,24.05
2018-06-12T01:07:12.335Z,24.03
2018-06-12T01:07:43.981Z,24.04
2018-06-12T01:08:15.590Z,24.06
2018-06-12T01:08:47.189Z,24.06
2018-06-12T01:09:18.797Z,24.06
2018-06-12T01:09:50.412Z,24.05
2018-06-12T01:10:22.013Z,24.04
2018-06-12T01:10:53.625Z,24.02
2018-06-12T01:11:25.210Z,24.01
2018-06-12T01:11:56.780Z,24.01
2018-06-12T01:12:28.356Z,24.00
2018-06-12T01:12:59.947Z,23.99
2018-06-12T01:13:31.553Z,23.99
2018-06-12T01:14:03.128Z,23.98
2018-06-12T01:14:34.710Z,23.98
2018-06-12T01:15:06.290Z,23.97
2018-06-12T01:15:37.859Z,23.97
2018-06-12T01:16:09.457Z,23.97
2018-06-12T01:16:41.045Z,23.96
2018-06-12T01:17:12.622Z,23.95
2018-06-12T01:17:44.201Z,23.95
2018-06-12T01:18:15.772Z,23.95
2018-06-12T01:18:47.377Z,23.95
2018-06-12T01:19:18.952Z,23.94
2018-06-12T01:19:50.533Z,23.96
2018-06-12T01:20:22.146Z,23.96
2018-06-12T01:20:53.727Z,23.96
2018-06-12T01:21:25.333Z,23.96
2018-06-12T01:21:56.946Z,23.96
2018-06-12T01:22:28.530Z,23.95
2018-06-12T01:23:00.115Z,23.95
2018-06-12T01:23:31.689Z,23.95
2018-06-12T01:24:03.287Z,23.94
2018-06-12T01:24:34.874Z,23.93
2018-06-12T01:25:06.443Z,23.93
2018-06-12T01:25:38.082Z,23.93
2018-06-12T01:26:09.689Z,23.94
2018-06-12T01:26:41.302Z,23.93
2018-06-12T01:27:12.898Z,23.95
2018-06-12T01:27:44.468Z,23.93
2018-06-12T01:28:16.069Z,23.96
2018-06-12T01:28:47.651Z,23.95
2018-06-12T01:29:19.265Z,23.94
2018-06-12T01:29:50.863Z,23.95
2018-06-12T01:30:22.473Z,23.94
2018-06-12T01:30:54.117Z,23.95
2018-06-12T01:31:25.705Z,23.95
2018-06-12T01:31:57.315Z,23.95
2018-06-12T01:32:28.896Z,23.94
2018-06-12T01:33:00.478Z,23.92
2018-06-12T01:33:32.082Z,23.93
2018-06-12T01:34:03.693Z,23.92
2018-06-12T01:34:35.301Z,23.91
2018-06-12T01:35:06.914Z,23.92
2018-06-12T01:35:38.502Z,23.93
2018-06-12T01:36:10.104Z,23.93
2018-06-12T01:36:41.682Z,23.92
2018-06-12T01:37:13.253Z,23.91
2018-06-12T01:37:44.827Z,23.91
2018-06-12T01:38:16.412Z,23.91
2018-06-12T01:38:48.008Z,23.90
2018-06-12T01:39:19.621Z,23.90
2018-06-12T01:39:51.205Z,23.90
2018-06-12T01:40:22.795Z,23.89
2018-06-12T01:40:54.391Z,23.89
2018-06-12T01:41:26.071Z,23.90
2018-06-12T01:41:57.664Z,23.90
2018-06-12T01:42:29.246Z,23.91
2018-06-12T01:43:00.853Z,23.91
2018-06-12T01:43:32.436Z,23.90
2018-06-12T01:44:04.022Z,23.90
2018-06-12T01:44:35.616Z,23.88
2018-06-12T01:45:07.221Z,23.90
2018-06-12T01:45:38.809Z,23.91
2018-06-12T01:46:10.413Z,23.92
2018-06-12T01:46:42.054Z,23.93
2018-06-12T01:47:13.652Z,23.95
2018-06-12T01:47:45.247Z,23.93
2018-06-12T01:48:16.829Z,23.93
2018-06-12T01:48:48.409Z,23.93
2018-06-12T01:49:20.017Z,23.92
2018-06-12T01:49:51.623Z,23.91
2018-06-12T01:50:23.229Z,23.93
2018-06-12T01:50:54.837Z,23.93
2018-06-12T01:51:26.446Z,23.92
2018-06-12T01:51:58.080Z,23.91
2018-06-12T01:52:29.690Z,23.91
2018-06-12T01:53:01.297Z,23.91
2018-06-12T01:53:32.885Z,23.92
2018-06-12T01:54:04.479Z,23.92
2018-06-12T01:54:36.065Z,23.92
2018-06-12T01:55:07.640Z,23.92
2018-06-12T01:55:39.232Z,23.93
2018-06-12T01:56:10.831Z,23.93
2018-06-12T01:56:42.441Z,23.92
2018-06-12T01:57:14.036Z,23.92
2018-06-12T01:57:45.645Z,23.92
2018-06-12T01:58:17.233Z,23.92
2018-06-12T01:58:48.838Z,23.92
2018-06-12T01:59:20.412Z,23.91
2018-06-12T01:59:52.026Z,23.91
2018-06-12T02:00:23.593Z,23.91
2018-06-12T02:00:55.201Z,23.92
2018-06-12T02:01:26.776Z,23.91
2018-06-12T02:01:58.345Z,23.90
2018-06-12T02:02:29.976Z,23.93
2018-06-12T02:03:01.549Z,23.92
2018-06-12T02:03:33.133Z,23.91
2018-06-12T02:04:04.700Z,23.91
2018-06-12T02:04:36.291Z,23.91
2018-06-12T02:05:07.897Z,23.91
2018-06-12T02:05:39.486Z,23.92
2018-06-12T02:06:11.093Z,23.91
2018-06-12T02:06:42.691Z,23.91
2018-06-12T02:07:14.277Z,23.90
2018-06-12T02:07:45.900Z,23.90
2018-06-12T02:08:17.468Z,23.90
2018-06-12T02:08:49.059Z,23.89
2018-06-12T02:09:20.656Z,23.89
2018-06-12T02:09:52.227Z,23.89
2018-06-12T02:10:23.812Z,23.89
2018-06-12T02:10:55.379Z,23.88
2018-06-12T02:11:26.971Z,23.88
2018-06-12T02:11:58.581Z,23.88
2018-06-12T02:12:30.562Z,23.89
2018-06-12T02:13:02.179Z,23.86
2018-06-12T02:13:33.760Z,23.88
2018-06-12T02:14:05.369Z,23.88
2018-06-12T02:14:36.953Z,23.87
2018-06-12T02:15:08.562Z,23.87
2018-06-12T02:15:40.145Z,23.89
2018-06-12T02:16:11.725Z,23.90
2018-06-12T02:16:43.333Z,23.91
2018-06-12T02:17:14.918Z,23.91
2018-06-12T02:17:46.501Z,23.91
2018-06-12T02:18:18.138Z,23.93
2018-06-12T02:18:49.725Z,23.93
2018-06-12T02:19:21.310Z,23.93
2018-06-12T02:19:52.918Z,23.93
2018-06-12T02:20:24.536Z,23.93
2018-06-12T02:20:56.135Z,23.93
2018-06-12T02:21:27.730Z,23.94
2018-06-12T02:21:59.337Z,23.94
2018-06-12T02:22:30.941Z,23.93
2018-06-12T02:23:02.540Z,23.92
2018-06-12T02:23:34.182Z,23.93
2018-06-12T02:24:05.829Z,23.91
2018-06-12T02:24:37.437Z,23.92
2018-06-12T02:25:09.046Z,23.92
2018-06-12T02:25:40.616Z,23.93
2018-06-12T02:26:12.197Z,23.91
2018-06-12T02:26:43.767Z,23.92
2018-06-12T02:27:15.345Z,23.93
2018-06-12T02:27:46.944Z,23.92
2018-06-12T02:28:18.589Z,23.92
2018-06-12T02:28:50.169Z,23.92
2018-06-12T02:29:21.778Z,23.91
2018-06-12T02:29:53.379Z,23.90
2018-06-12T02:30:24.968Z,23.91
2018-06-12T02:30:56.551Z,23.91
2018-06-12T02:31:28.157Z,23.90
2018-06-12T02:31:59.751Z,23.90
2018-06-12T02:32:31.338Z,23.88
2018-06-12T02:33:02.934Z,23.88
2018-06-12T02:33:34.581Z,23.86
2018-06-12T02:34:06.205Z,23.87
2018-06-12T02:34:37.797Z,23.87
2018-06-12T02:35:09.364Z,23.87
2018-06-12T02:35:40.960Z,23.86
2018-06-12T02:36:12.545Z,23.86
2018-06-12T02:36:44.149Z,23.86
2018-06-12T02:37:15.757Z,23.87
2018-06-12T02:37:47.352Z,23.87
2018-06-12T02:38:18.935Z,23.87
2018-06-12T02:38:50.579Z,23.87
2018-06-12T02:39:22.171Z,23.87
2018-06-12T02:39:53.757Z,23.87
2018-06-12T02:40:25.370Z,23.88
2018-06-12T02:40:56.957Z,23.86
2018-06-12T02:41:28.600Z,23.88
2018-06-12T02:42:00.232Z,23.90
2018-06-12T02:42:31.828Z,23.90
2018-06-12T02:43:03.418Z,23.89
2018-06-12T02:43:35.017Z,23.90
2018-06-12T02:44:06.590Z,23.91
2018-06-12T02:44:38.187Z,23.90
2018-06-12T02:45:09.781Z,23.90
2018-06-12T02:45:41.393Z,23.89
2018-06-12T02:46:12.981Z,23.90
2018-06-12T02:46:44.581Z,23.90
2018-06-12T02:47:16.183Z,23.89
2018-06-12T02:47:47.789Z,23.90
2018-06-12T02:48:19.382Z,23.90
2018-06-12T02:48:50.979Z,23.90
2018-06-12T02:49:22.588Z,23.90
2018-06-12T02:49:54.164Z,23.91
2018-06-12T02:50:25.732Z,23.92
2018-06-12T02:50:57.377Z,23.92
2018-06-12T02:51:28.961Z,23.92
2018-06-12T02:52:00.533Z,23.90
2018-06-12T02:52:32.108Z,23.91
2018-06-12T02:53:03.719Z,23.92
2018-06-12T02:53:35.309Z,23.92
2018-06-12T02:54:06.884Z,23.91
2018-06-12T02:54:38.496Z,23.91
2018-06-12T02:55:10.089Z,23.91
2018-06-12T02:55:41.698Z,23.91
2018-06-12T02:56:13.349Z,23.92
2018-06-12T02:56:44.924Z,23.93
2018-06-12T02:57:16.517Z,23.93
2018-06-12T02:57:48.126Z,23.93
2018-06-12T02:58:19.733Z,23.92
2018-06-12T02:58:51.330Z,23.65
2018-06-12T02:59:22.933Z,23.91
2018-06-12T02:59:54.568Z,23.90
2018-06-12T03:00:26.177Z,23.90
2018-06-12T03:00:57.766Z,23.90
2018-06-12T03:01:29.346Z,23.91
2018-06-12T03:02:00.957Z,23.91
2018-06-12T03:02:32.540Z,23.91
2018-06-12T03:03:04.122Z,23.91
2018-06-12T03:03:35.717Z,23.90
2018-06-12T03:04:07.325Z,23.90
2018-06-12T03:04:38.923Z,23.90
2018-06-12T03:05:10.570Z,23.90
2018-06-12T03:05:42.162Z,23.91
2018-06-12T03:06:13.760Z,23.93
2018-06-12T03:06:45.365Z,23.94
2018-06-12T03:07:16.958Z,23.98
2018-06-12T03:07:48.545Z,24.02
2018-06-12T03:08:20.156Z,24.03
2018-06-12T03:08:51.741Z,24.01
2018-06-12T03:09:23.321Z,24.00
2018-06-12T03:09:54.921Z,23.98
2018-06-12T03:10:26.742Z,23.96
2018-06-12T03:10:58.333Z,23.94
2018-06-12T03:11:29.917Z,23.92
2018-06-12T03:12:01.501Z,23.92
2018-06-12T03:12:33.086Z,23.91
2018-06-12T03:13:04.679Z,23.90
2018-06-12T03:13:36.280Z,23.90
2018-06-12T03:14:07.893Z,23.91
2018-06-12T03:14:39.482Z,23.91
2018-06-12T03:15:11.066Z,23.91
2018-06-12T03:15:42.701Z,23.90
2018-06-12T03:16:14.318Z,23.90
2018-06-12T03:16:45.896Z,23.90
2018-06-12T03:17:17.478Z,23.92
2018-06-12T03:17:49.057Z,23.91
2018-06-12T03:18:20.638Z,23.91
2018-06-12T03:18:52.225Z,23.91
2018-06-12T03:19:23.809Z,23.91
2018-06-12T03:19:55.404Z,23.91
2018-06-12T03:20:26.985Z,23.88
2018-06-12T03:20:58.607Z,23.90
2018-06-12T03:21:30.200Z,23.88
2018-06-12T03:22:01.814Z,23.90
2018-06-12T03:22:33.397Z,23.90
2018-06-12T03:23:04.965Z,23.90
2018-06-12T03:23:36.550Z,23.89
2018-06-12T03:24:08.134Z,23.90
2018-06-12T03:24:39.742Z,23.90
2018-06-12T03:25:11.340Z,23.90
2018-06-12T03:25:42.985Z,23.89
2018-06-12T03:26:14.575Z,23.89
2018-06-12T03:26:46.157Z,23.89
2018-06-12T03:27:17.762Z,23.88
2018-06-12T03:27:49.355Z,23.87
2018-06-12T03:28:20.952Z,23.89
2018-06-12T03:28:52.561Z,23.88
2018-06-12T03:29:24.136Z,23.89
2018-06-12T03:29:55.737Z,23.89
2018-06-12T03:30:27.349Z,23.88
2018-06-12T03:30:58.980Z,23.88
2018-06-12T03:31:30.556Z,23.88
2018-06-12T03:32:02.138Z,23.87
2018-06-12T03:32:33.749Z,23.87
2018-06-12T03:33:05.348Z,23.86
2018-06-12T03:33:36.944Z,23.88
2018-06-12T03:34:08.530Z,23.87
2018-06-12T03:34:40.140Z,23.87
2018-06-12T03:35:11.725Z,23.88
2018-06-12T03:35:43.302Z,23.88
2018-06-12T03:36:14.886Z,23.87
2018-06-12T03:36:46.465Z,23.87
2018-06-12T03:37:18.066Z,23.88
2018-06-12T03:37:49.631Z,23.87
2018-06-12T03:38:21.214Z,23.87
2018-06-12T03:38:52.807Z,23.87
2018-06-12T03:39:24.386Z,23.86
2018-06-12T03:39:55.971Z,23.86
2018-06-12T03:40:27.564Z,23.87
2018-06-12T03:40:59.169Z,23.87
2018-06-12T03:41:30.805Z,23.87
2018-06-12T03:42:02.452Z,23.87
2018-06-12T03:42:34.040Z,23.86
2018-06-12T03:43:05.632Z,23.86
2018-06-12T03:43:37.241Z,23.87
2018-06-12T03:44:08.850Z,23.88
2018-06-12T03:44:40.449Z,23.89
2018-06-12T03:45:12.037Z,23.89
2018-06-12T03:45:43.649Z,23.88
2018-06-12T03:46:15.270Z,23.88
2018-06-12T03:46:46.864Z,23.88
2018-06-12T03:47:18.463Z,23.87
2018-06-12T03:47:50.073Z,23.87
2018-06-12T03:48:21.681Z,23.86
2018-06-12T03:48:53.269Z,23.87
2018-06-12T03:49:24.877Z,23.87
2018-06-12T03:49:56.476Z,23.85
2018-06-12T03:50:28.058Z,23.86
2018-06-12T03:50:59.666Z,23.86
2018-06-12T03:51:31.301Z,23.86
2018-06-12T03:52:02.885Z,23.87
2018-06-12T03:52:34.489Z,23.87
2018-06-12T03:53:06.088Z,23.87
2018-06-12T03:53:37.660Z,23.87
2018-06-12T03:54:09.273Z,23.86
2018-06-12T03:54:40.876Z,23.86
2018-06-12T03:55:12.472Z,23.86
2018-06-12T03:55:44.067Z,23.86
2018-06-12T03:56:15.673Z,23.84
2018-06-12T03:56:47.325Z,23.85
2018-06-12T03:57:18.927Z,23.86
2018-06-12T03:57:50.538Z,23.86
2018-06-12T03:58:22.116Z,23.86
2018-06-12T03:58:53.690Z,23.86
2018-06-12T03:59:25.277Z,23.85
2018-06-12T03:59:56.874Z,23.86
2018-06-12T04:00:28.484Z,23.86
2018-06-12T04:01:00.094Z,23.85
2018-06-12T04:01:31.672Z,23.85
2018-06-12T04:02:03.536Z,23.84
2018-06-12T04:02:35.136Z,23.84
2018-06-12T04:03:06.718Z,23.85
2018-06-12T04:03:38.401Z,23.85
2018-06-12T04:04:10.009Z,23.85
2018-06-12T04:04:41.613Z,23.86
2018-06-12T04:05:13.184Z,23.85
2018-06-12T04:05:44.756Z,23.86
2018-06-12T04:06:16.361Z,23.87
2018-06-12T04:06:47.936Z,23.88
2018-06-12T04:07:19.550Z,23.93
2018-06-12T04:07:51.153Z,23.93
2018-06-12T04:08:22.724Z,23.95
2018-06-12T04:08:54.310Z,23.94
2018-06-12T04:09:25.916Z,23.94
2018-06-12T04:09:57.513Z,23.93
2018-06-12T04:10:29.118Z,23.93
2018-06-12T04:11:00.701Z,23.93
2018-06-12T04:11:32.296Z,23.93
2018-06-12T04:12:03.910Z,23.93
2018-06-12T04:12:35.517Z,23.92
2018-06-12T04:13:07.121Z,23.91
2018-06-12T04:13:38.733Z,23.90
2018-06-12T04:14:10.322Z,23.88
2018-06-12T04:14:41.951Z,23.87
2018-06-12T04:15:13.527Z,23.86
2018-06-12T04:15:45.106Z,23.86
2018-06-12T04:16:16.685Z,23.86
2018-06-12T04:16:48.279Z,23.86
2018-06-12T04:17:19.916Z,23.87
2018-06-12T04:17:51.498Z,23.87
2018-06-12T04:18:23.086Z,23.87
2018-06-12T04:18:54.679Z,23.87
2018-06-12T04:19:26.287Z,23.86
2018-06-12T04:19:57.871Z,23.86
2018-06-12T04:20:29.451Z,23.86
2018-06-12T04:21:01.050Z,23.86
2018-06-12T04:21:32.658Z,23.86
2018-06-12T04:22:04.260Z,23.85
2018-06-12T04:22:35.886Z,23.85
2018-06-12T04:23:07.464Z,23.86
2018-06-12T04:23:39.065Z,23.85
2018-06-12T04:24:10.640Z,23.84
2018-06-12T04:24:42.236Z,23.83
2018-06-12T04:25:13.812Z,23.85
2018-06-12T04:25:45.414Z,23.86
2018-06-12T04:26:17.282Z,23.85
2018-06-12T04:26:48.874Z,23.85
2018-06-12T04:27:20.481Z,23.84
2018-06-12T04:27:52.105Z,23.85
2018-06-12T04:28:23.690Z,23.84
2018-06-12T04:28:55.329Z,23.85
2018-06-12T04:29:26.918Z,23.85
2018-06-12T04:29:58.548Z,23.85
2018-06-12T04:30:30.166Z,23.86
2018-06-12T04:31:01.722Z,23.87
2018-06-12T04:31:33.295Z,23.87
2018-06-12T04:32:04.889Z,23.86
2018-06-12T04:32:36.479Z,23.87
2018-06-12T04:33:08.085Z,23.87
2018-06-12T04:33:39.667Z,23.86
2018-06-12T04:34:11.270Z,23.86
2018-06-12T04:34:42.853Z,23.86
2018-06-12T04:35:14.457Z,23.86
2018-06-12T04:35:46.047Z,23.87
2018-06-12T04:36:17.633Z,23.88
2018-06-12T04:36:49.242Z,23.88
2018-06-12T04:37:20.833Z,23.87
2018-06-12T04:37:52.433Z,23.87
2018-06-12T04:38:24.018Z,23.86
2018-06-12T04:38:55.611Z,23.86
2018-06-12T04:39:27.226Z,23.84
2018-06-12T04:39:58.804Z,23.84
2018-06-12T04:40:30.401Z,23.85
2018-06-12T04:41:02.009Z,23.84
2018-06-12T04:41:33.584Z,23.84
2018-06-12T04:42:05.163Z,23.85
2018-06-12T04:42:36.745Z,23.84
2018-06-12T04:43:08.382Z,23.84
2018-06-12T04:43:39.990Z,23.84
2018-06-12T04:44:11.569Z,23.84
2018-06-12T04:44:43.159Z,23.84
2018-06-12T04:45:14.756Z,23.82
2018-06-12T04:45:46.346Z,23.84
2018-06-12T04:46:17.954Z,23.85
2018-06-12T04:46:49.545Z,23.86
2018-06-12T04:47:21.116Z,23.87
2018-06-12T04:47:52.697Z,23.87
2018-06-12T04:48:24.314Z,23.89
2018-06-12T04:48:55.896Z,23.88
2018-06-12T04:49:27.464Z,23.88
2018-06-12T04:49:59.056Z,23.88
2018-06-12T04:50:30.642Z,23.87
2018-06-12T04:51:02.241Z,23.87
2018-06-12T04:51:33.822Z,23.86
2018-06-12T04:52:05.392Z,23.86
2018-06-12T04:52:36.988Z,23.85
2018-06-12T04:53:08.560Z,23.87
2018-06-12T04:53:40.205Z,23.86
2018-06-12T04:54:11.793Z,23.89
2018-06-12T04:54:43.462Z,23.90
2018-06-12T04:55:15.020Z,23.91
2018-06-12T04:55:46.606Z,23.91
2018-06-12T04:56:18.180Z,23.91
2018-06-12T04:56:49.765Z,23.90
2018-06-12T04:57:21.333Z,23.91
2018-06-12T04:57:52.977Z,23.90
2018-06-12T04:58:24.590Z,23.90
2018-06-12T04:58:56.205Z,23.88
2018-06-12T04:59:27.818Z,23.88
2018-06-12T04:59:59.453Z,23.87
2018-06-12T05:00:31.038Z,23.87
2018-06-12T05:01:02.646Z,23.86
2018-06-12T05:01:34.229Z,23.85
2018-06-12T05:02:05.810Z,23.87
2018-06-12T05:02:37.413Z,23.88
2018-06-12T05:03:08.993Z,23.89
2018-06-12T05:03:40.593Z,23.89
2018-06-12T05:04:12.234Z,23.90
2018-06-12T05:04:43.812Z,23.88
2018-06-12T05:05:15.417Z,23.89
2018-06-12T05:05:47.024Z,23.89
2018-06-12T05:06:18.613Z,23.88
2018-06-12T05:06:50.202Z,23.86
2018-06-12T05:07:21.791Z,23.87
2018-06-12T05:07:53.370Z,23.86
2018-06-12T05:08:24.953Z,23.87
2018-06-12T05:08:56.532Z,23.86
2018-06-12T05:09:28.175Z,23.86
2018-06-12T05:09:59.750Z,23.86
2018-06-12T05:10:31.389Z,23.87
2018-06-12T05:11:02.956Z,23.87
2018-06-12T05:11:34.542Z,23.87
2018-06-12T05:12:06.141Z,23.88
2018-06-12T05:12:37.757Z,23.88
2018-06-12T05:13:09.346Z,23.89
2018-06-12T05:13:40.943Z,23.90
2018-06-12T05:14:12.520Z,23.92
2018-06-12T05:14:44.171Z,23.91
2018-06-12T05:15:15.771Z,23.91
2018-06-12T05:15:47.385Z,23.90
2018-06-12T05:16:19.002Z,23.91
2018-06-12T05:16:50.595Z,23.91
2018-06-12T05:17:22.181Z,23.91
2018-06-12T05:17:53.790Z,23.93
2018-06-12T05:18:25.373Z,23.93
2018-06-12T05:18:56.957Z,23.92
2018-06-12T05:19:28.538Z,23.93
2018-06-12T05:20:00.263Z,23.91
2018-06-12T05:20:31.812Z,23.91
2018-06-12T05:21:03.420Z,23.90
2018-06-12T05:21:35.026Z,23.89
2018-06-12T05:22:06.633Z,23.90
2018-06-12T05:22:38.208Z,23.87
2018-06-12T05:23:09.776Z,23.88
2018-06-12T05:23:41.385Z,23.90
2018-06-12T05:24:12.956Z,23.90
2018-06-12T05:24:44.542Z,23.90
2018-06-12T05:25:16.157Z,23.91
2018-06-12T05:25:47.738Z,23.90
2018-06-12T05:26:19.318Z,23.90
2018-06-12T05:26:50.916Z,23.90
2018-06-12T05:27:22.527Z,23.89
2018-06-12T05:27:54.113Z,23.89
2018-06-12T05:28:25.743Z,23.89
2018-06-12T05:28:57.341Z,23.88
2018-06-12T05:29:28.949Z,23.88
2018-06-12T05:30:00.537Z,23.88
2018-06-12T05:30:32.202Z,23.88
2018-06-12T05:31:03.873Z,23.89
2018-06-12T05:31:35.422Z,23.90
2018-06-12T05:32:07.021Z,23.89
2018-06-12T05:32:38.605Z,23.91
2018-06-12T05:33:10.196Z,23.90
2018-06-12T05:33:41.801Z,23.90
2018-06-12T05:34:13.386Z,23.89
2018-06-12T05:34:44.965Z,23.89
2018-06-12T05:35:16.573Z,23.90
2018-06-12T05:35:48.209Z,23.89
2018-06-12T05:36:19.843Z,23.89
2018-06-12T05:36:51.417Z,23.88
2018-06-12T05:37:22.992Z,23.88
2018-06-12T05:37:54.579Z,23.88
2018-06-12T05:38:26.159Z,23.89
2018-06-12T05:38:57.742Z,23.90
2018-06-12T05:39:29.326Z,23.90
2018-06-12T05:40:00.907Z,23.95
2018-06-12T05:40:32.490Z,24.00
2018-06-12T05:41:04.123Z,23.99
2018-06-12T05:41:35.729Z,23.92
2018-06-12T05:42:07.334Z,23.80
2018-06-12T05:42:38.934Z,23.68
2018-06-12T05:43:10.545Z,23.56
2018-06-12T05:43:42.159Z,23.45
2018-06-12T05:44:13.745Z,23.35
2018-06-12T05:44:45.339Z,23.27
2018-06-12T05:45:16.921Z,23.20
2018-06-12T05:45:48.488Z,23.14
2018-06-12T05:46:20.124Z,23.11
2018-06-12T05:46:51.729Z,23.07
2018-06-12T05:47:23.324Z,23.07
2018-06-12T05:47:54.905Z,23.06
2018-06-12T05:48:26.486Z,23.05
2018-06-12T05:48:58.090Z,23.04
2018-06-12T05:49:29.674Z,23.02
2018-06-12T05:50:01.282Z,23.02
2018-06-12T05:50:32.875Z,23.00
2018-06-12T05:51:04.482Z,22.99
2018-06-12T05:51:36.124Z,22.98
2018-06-12T05:52:07.713Z,22.97
2018-06-12T05:52:39.294Z,22.95
2018-06-12T05:53:10.902Z,22.93
2018-06-12T05:53:42.508Z,22.93
2018-06-12T05:54:14.117Z,22.91
2018-06-12T05:54:45.721Z,22.90
2018-06-12T05:55:17.329Z,22.88
2018-06-12T05:55:51.303Z,22.88
2018-06-12T05:56:22.886Z,22.87
2018-06-12T05:56:54.526Z,22.87
2018-06-12T05:57:26.109Z,22.87
2018-06-12T05:57:57.693Z,22.86
2018-06-12T05:58:29.268Z,22.84
2018-06-12T05:59:00.901Z,22.81
2018-06-12T05:59:32.513Z,22.81
2018-06-12T06:00:04.117Z,22.79
2018-06-12T06:00:35.688Z,22.77
2018-06-12T06:01:07.290Z,22.76
2018-06-12T06:01:38.933Z,22.76
2018-06-12T06:02:10.528Z,22.76
2018-06-12T06:02:42.134Z,22.72
2018-06-12T06:03:13.716Z,22.74
2018-06-12T06:03:45.288Z,22.73
2018-06-12T06:04:16.880Z,22.72
2018-06-12T06:04:48.487Z,22.71
2018-06-12T06:05:20.078Z,22.72
2018-06-12T06:05:51.681Z,22.74
2018-06-12T06:06:23.269Z,22.74
2018-06-12T06:06:54.929Z,22.74
2018-06-12T06:07:27.102Z,22.73
2018-06-12T06:07:58.736Z,22.71
2018-06-12T06:08:30.341Z,22.71
2018-06-12T06:09:01.962Z,22.70
2018-06-12T06:09:33.527Z,22.69
2018-06-12T06:10:05.113Z,22.68
2018-06-12T06:10:36.735Z,22.67
2018-06-12T06:11:08.380Z,22.68
2018-06-12T06:11:39.985Z,22.57
2018-06-12T06:12:11.564Z,22.68
2018-06-12T06:12:43.136Z,22.68
2018-06-12T06:13:14.728Z,22.68
2018-06-12T06:13:46.321Z,22.68
2018-06-12T06:14:17.934Z,22.68
2018-06-12T06:14:49.549Z,22.68
2018-06-12T06:15:21.134Z,22.67
2018-06-12T06:15:52.725Z,22.67
2018-06-12T06:16:24.332Z,22.66
2018-06-12T06:16:55.911Z,22.65
2018-06-12T06:17:27.537Z,22.65
2018-06-12T06:17:59.104Z,22.64
2018-06-12T06:18:30.672Z,22.63
2018-06-12T06:19:02.262Z,22.53
2018-06-12T06:19:33.875Z,22.62
2018-06-12T06:20:05.530Z,22.62
2018-06-12T06:20:37.137Z,22.59
2018-06-12T06:21:08.752Z,22.61
2018-06-12T06:21:40.337Z,22.60
2018-06-12T06:22:11.946Z,22.60
2018-06-12T06:22:43.600Z,22.58
2018-06-12T06:23:15.228Z,22.59
2018-06-12T06:23:46.814Z,22.58
2018-06-12T06:24:18.397Z,22.58
2018-06-12T06:24:49.980Z,22.58
2018-06-12T06:25:21.569Z,22.58
2018-06-12T06:25:53.169Z,22.59
2018-06-12T06:26:24.757Z,22.62
2018-06-12T06:26:56.357Z,22.63
2018-06-12T06:27:27.961Z,22.64
2018-06-12T06:27:59.589Z,22.64
2018-06-12T06:28:31.180Z,22.63
2018-06-12T06:29:02.753Z,22.64
2018-06-12T06:29:34.324Z,22.64
2018-06-12T06:30:05.906Z,22.70
2018-06-12T06:30:37.476Z,22.73
2018-06-12T06:31:09.054Z,22.66
2018-06-12T06:31:40.916Z,22.54
2018-06-12T06:32:12.527Z,22.44
2018-06-12T06:32:44.114Z,22.32
2018-06-12T06:33:15.733Z,22.21
2018-06-12T06:33:47.308Z,22.13
2018-06-12T06:34:18.904Z,22.06
2018-06-12T06:34:50.533Z,22.00
2018-06-12T06:35:22.121Z,21.95
2018-06-12T06:35:53.718Z,21.90
2018-06-12T06:36:25.330Z,21.90
2018-06-12T06:36:56.922Z,21.91
2018-06-12T06:37:28.492Z,21.97
2018-06-12T06:38:00.084Z,22.01
2018-06-12T06:38:31.726Z,22.08
2018-06-12T06:39:03.338Z,22.19
2018-06-12T06:39:34.925Z,22.26
2018-06-12T06:40:06.546Z,22.32
2018-06-12T06:40:38.126Z,22.38
2018-06-12T06:41:09.724Z,22.41
2018-06-12T06:41:41.310Z,22.43
2018-06-12T06:42:12.925Z,22.46
2018-06-12T06:42:44.520Z,22.49
2018-06-12T06:43:16.125Z,22.50
2018-06-12T06:43:47.755Z,22.42
2018-06-12T06:44:19.358Z,22.54
2018-06-12T06:44:50.958Z,22.57
2018-06-12T06:45:22.546Z,22.61
2018-06-12T06:45:54.125Z,22.65
2018-06-12T06:46:25.719Z,22.67
2018-06-12T06:46:57.315Z,22.68